sensor_id;sensor_type;location;lat;lon;timestamp;pressure;altitude;pressure_sealevel;temperature
78669;BMP280;67984;45.118;20.724;2023-05-10T00:09:16;100726.41;;;10.47
78669;BMP280;67984;45.118;20.724;2023-05-10T00:19:17;100712.84;;;10.31
78669;BMP280;67984;45.118;20.724;2023-05-10T00:29:18;100710.91;;;10.22
78669;BMP280;67984;45.118;20.724;2023-05-10T00:39:19;100694.53;;;10.21
78669;BMP280;67984;45.118;20.724;2023-05-10T00:49:20;100693.47;;;10.29
78669;BMP280;67984;45.118;20.724;2023-05-10T00:59:21;100681.38;;;10.11
78669;BMP280;67984;45.118;20.724;2023-05-10T01:09:22;100674.53;;;9.99
78669;BMP280;67984;45.118;20.724;2023-05-10T01:19:28;100651.06;;;9.99
78669;BMP280;67984;45.118;20.724;2023-05-10T01:50:32;100637.97;;;9.92
78669;BMP280;67984;45.118;20.724;2023-05-10T02:00:35;100632.75;;;9.89
78669;BMP280;67984;45.118;20.724;2023-05-10T02:10:37;100624.47;;;9.83
78669;BMP280;67984;45.118;20.724;2023-05-10T02:20:40;100627.00;;;9.76
78669;BMP280;67984;45.118;20.724;2023-05-10T02:30:41;100613.88;;;9.66
78669;BMP280;67984;45.118;20.724;2023-05-10T02:40:42;100612.31;;;9.58
78669;BMP280;67984;45.118;20.724;2023-05-10T02:50:44;100596.28;;;9.56
78669;BMP280;67984;45.118;20.724;2023-05-10T03:00:46;100579.56;;;9.61
78669;BMP280;67984;45.118;20.724;2023-05-10T03:21:28;100579.38;;;9.76
78669;BMP280;67984;45.118;20.724;2023-05-10T03:31:31;100580.25;;;9.90
78669;BMP280;67984;45.118;20.724;2023-05-10T03:41:32;100585.38;;;10.23
78669;BMP280;67984;45.118;20.724;2023-05-10T03:51:33;100589.69;;;10.52
78669;BMP280;67984;45.118;20.724;2023-05-10T04:01:34;100597.28;;;10.74
78669;BMP280;67984;45.118;20.724;2023-05-10T04:11:35;100589.56;;;10.95
78669;BMP280;67984;45.118;20.724;2023-05-10T04:21:36;100594.88;;;11.16
78669;BMP280;67984;45.118;20.724;2023-05-10T04:31:36;100607.69;;;11.66
78669;BMP280;67984;45.118;20.724;2023-05-10T04:41:37;100611.50;;;12.21
78669;BMP280;67984;45.118;20.724;2023-05-10T04:51:38;100601.00;;;12.41
78669;BMP280;67984;45.118;20.724;2023-05-10T05:01:40;100600.94;;;12.80
78669;BMP280;67984;45.118;20.724;2023-05-10T05:11:41;100599.31;;;13.10
78669;BMP280;67984;45.118;20.724;2023-05-10T05:21:42;100618.50;;;13.57
78669;BMP280;67984;45.118;20.724;2023-05-10T05:31:42;100613.84;;;13.82
78669;BMP280;67984;45.118;20.724;2023-05-10T05:41:43;100613.28;;;14.45
78669;BMP280;67984;45.118;20.724;2023-05-10T05:51:44;100612.78;;;14.90
78669;BMP280;67984;45.118;20.724;2023-05-10T06:01:45;100604.13;;;15.45
78669;BMP280;67984;45.118;20.724;2023-05-10T06:11:46;100613.50;;;15.46
78669;BMP280;67984;45.118;20.724;2023-05-10T06:21:47;100621.31;;;15.76
78669;BMP280;67984;45.118;20.724;2023-05-10T06:31:47;100629.28;;;15.95
78669;BMP280;67984;45.118;20.724;2023-05-10T06:41:48;100615.41;;;15.91
78669;BMP280;67984;45.118;20.724;2023-05-10T06:51:49;100626.97;;;15.97
78669;BMP280;67984;45.118;20.724;2023-05-10T07:01:50;100622.44;;;16.01
78669;BMP280;67984;45.118;20.724;2023-05-10T07:11:51;100620.34;;;15.89
78669;BMP280;67984;45.118;20.724;2023-05-10T07:21:52;100625.00;;;16.24
78669;BMP280;67984;45.118;20.724;2023-05-10T07:31:52;100623.75;;;16.51
78669;BMP280;67984;45.118;20.724;2023-05-10T07:41:54;100619.53;;;17.08
78669;BMP280;67984;45.118;20.724;2023-05-10T07:51:55;100629.13;;;17.18
78669;BMP280;67984;45.118;20.724;2023-05-10T08:01:56;100641.06;;;17.23
78669;BMP280;67984;45.118;20.724;2023-05-10T08:11:57;100625.69;;;17.53
78669;BMP280;67984;45.118;20.724;2023-05-10T08:21:59;100633.25;;;17.35
78669;BMP280;67984;45.118;20.724;2023-05-10T08:32:00;100620.66;;;16.92
78669;BMP280;67984;45.118;20.724;2023-05-10T08:42:02;100629.16;;;17.34
78669;BMP280;67984;45.118;20.724;2023-05-10T08:52:05;100628.47;;;17.46
78669;BMP280;67984;45.118;20.724;2023-05-10T09:02:10;100629.63;;;17.77
78669;BMP280;67984;45.118;20.724;2023-05-10T09:12:13;100628.09;;;17.92
78669;BMP280;67984;45.118;20.724;2023-05-10T09:22:16;100618.25;;;18.08
78669;BMP280;67984;45.118;20.724;2023-05-10T09:32:17;100604.56;;;18.25
78669;BMP280;67984;45.118;20.724;2023-05-10T09:42:18;100603.72;;;18.28
78669;BMP280;67984;45.118;20.724;2023-05-10T09:52:19;100594.22;;;18.31
78669;BMP280;67984;45.118;20.724;2023-05-10T10:02:20;100581.91;;;18.65
78669;BMP280;67984;45.118;20.724;2023-05-10T10:12:21;100575.88;;;18.52
78669;BMP280;67984;45.118;20.724;2023-05-10T10:22:22;100572.06;;;18.78
78669;BMP280;67984;45.118;20.724;2023-05-10T10:32:49;100569.50;;;19.11
78669;BMP280;67984;45.118;20.724;2023-05-10T10:42:55;100542.88;;;19.40
78669;BMP280;67984;45.118;20.724;2023-05-10T10:53:10;100549.03;;;19.58
78669;BMP280;67984;45.118;20.724;2023-05-10T11:03:15;100548.28;;;20.00
78669;BMP280;67984;45.118;20.724;2023-05-10T11:13:37;100548.25;;;20.21
78669;BMP280;67984;45.118;20.724;2023-05-10T11:33:50;100546.53;;;20.27
78669;BMP280;67984;45.118;20.724;2023-05-10T11:43:53;100528.81;;;20.15
78669;BMP280;67984;45.118;20.724;2023-05-10T11:53:55;100533.97;;;20.19
78669;BMP280;67984;45.118;20.724;2023-05-10T12:03:57;100523.50;;;20.15
78669;BMP280;67984;45.118;20.724;2023-05-10T12:14:04;100509.94;;;20.13
78669;BMP280;67984;45.118;20.724;2023-05-10T12:24:05;100497.88;;;20.12
78669;BMP280;67984;45.118;20.724;2023-05-10T12:34:07;100501.00;;;20.29
78669;BMP280;67984;45.118;20.724;2023-05-10T12:44:08;100501.22;;;20.43
78669;BMP280;67984;45.118;20.724;2023-05-10T12:54:09;100489.34;;;20.57
78669;BMP280;67984;45.118;20.724;2023-05-10T13:04:10;100478.94;;;20.89
78669;BMP280;67984;45.118;20.724;2023-05-10T13:14:10;100462.22;;;20.61
78669;BMP280;67984;45.118;20.724;2023-05-10T13:24:11;100438.47;;;20.40
78669;BMP280;67984;45.118;20.724;2023-05-10T13:34:14;100453.38;;;20.47
78669;BMP280;67984;45.118;20.724;2023-05-10T13:44:15;100441.97;;;20.28
78669;BMP280;67984;45.118;20.724;2023-05-10T13:54:16;100428.22;;;20.21
78669;BMP280;67984;45.118;20.724;2023-05-10T14:04:19;100405.09;;;20.04
78669;BMP280;67984;45.118;20.724;2023-05-10T14:14:20;100409.78;;;20.00
78669;BMP280;67984;45.118;20.724;2023-05-10T14:24:21;100407.34;;;19.84
78669;BMP280;67984;45.118;20.724;2023-05-10T14:34:22;100422.25;;;19.90
78669;BMP280;67984;45.118;20.724;2023-05-10T14:44:22;100417.16;;;20.05
78669;BMP280;67984;45.118;20.724;2023-05-10T14:54:24;100414.31;;;19.99
78669;BMP280;67984;45.118;20.724;2023-05-10T15:04:24;100416.16;;;20.11
78669;BMP280;67984;45.118;20.724;2023-05-10T15:14:25;100398.59;;;20.05
78669;BMP280;67984;45.118;20.724;2023-05-10T15:24:26;100424.25;;;19.77
78669;BMP280;67984;45.118;20.724;2023-05-10T15:34:27;100427.72;;;19.44
78669;BMP280;67984;45.118;20.724;2023-05-10T15:44:28;100419.84;;;19.32
78669;BMP280;67984;45.118;20.724;2023-05-10T15:54:29;100420.53;;;19.23
78669;BMP280;67984;45.118;20.724;2023-05-10T16:04:30;100413.63;;;19.05
78669;BMP280;67984;45.118;20.724;2023-05-10T16:14:30;100425.38;;;19.04
78669;BMP280;67984;45.118;20.724;2023-05-10T16:24:31;100422.44;;;19.02
78669;BMP280;67984;45.118;20.724;2023-05-10T16:34:32;100432.38;;;18.98
78669;BMP280;67984;45.118;20.724;2023-05-10T16:44:32;100431.94;;;18.99
78669;BMP280;67984;45.118;20.724;2023-05-10T16:54:33;100435.00;;;19.10
78669;BMP280;67984;45.118;20.724;2023-05-10T17:04:34;100436.44;;;18.90
78669;BMP280;67984;45.118;20.724;2023-05-10T17:14:37;100437.53;;;20.16
78669;BMP280;67984;45.118;20.724;2023-05-10T17:24:39;100443.88;;;19.37
78669;BMP280;67984;45.118;20.724;2023-05-10T17:34:40;100450.47;;;18.03
78669;BMP280;67984;45.118;20.724;2023-05-10T17:44:40;100467.13;;;17.32
78669;BMP280;67984;45.118;20.724;2023-05-10T17:54:41;100474.69;;;16.86
78669;BMP280;67984;45.118;20.724;2023-05-10T18:04:42;100483.38;;;16.51
78669;BMP280;67984;45.118;20.724;2023-05-10T18:14:43;100488.53;;;16.19
78669;BMP280;67984;45.118;20.724;2023-05-10T18:24:43;100497.31;;;15.93
78669;BMP280;67984;45.118;20.724;2023-05-10T18:34:46;100503.44;;;15.68
78669;BMP280;67984;45.118;20.724;2023-05-10T18:44:47;100512.50;;;15.44
78669;BMP280;67984;45.118;20.724;2023-05-10T18:54:48;100507.25;;;15.18
78669;BMP280;67984;45.118;20.724;2023-05-10T19:04:49;100521.41;;;15.01
78669;BMP280;67984;45.118;20.724;2023-05-10T19:14:50;100525.44;;;14.82
78669;BMP280;67984;45.118;20.724;2023-05-10T19:24:51;100525.59;;;14.68
78669;BMP280;67984;45.118;20.724;2023-05-10T19:34:51;100533.00;;;14.47
78669;BMP280;67984;45.118;20.724;2023-05-10T19:44:52;100530.56;;;14.30
78669;BMP280;67984;45.118;20.724;2023-05-10T19:54:53;100526.25;;;14.13
78669;BMP280;67984;45.118;20.724;2023-05-10T20:04:53;100516.63;;;14.00
78669;BMP280;67984;45.118;20.724;2023-05-10T20:14:54;100510.78;;;13.85
78669;BMP280;67984;45.118;20.724;2023-05-10T20:24:55;100509.00;;;13.75
78669;BMP280;67984;45.118;20.724;2023-05-10T20:34:57;100507.56;;;13.67
78669;BMP280;67984;45.118;20.724;2023-05-10T20:44:58;100518.13;;;13.60
78669;BMP280;67984;45.118;20.724;2023-05-10T20:54:59;100501.28;;;13.61
78669;BMP280;67984;45.118;20.724;2023-05-10T21:05:00;100492.66;;;13.57
78669;BMP280;67984;45.118;20.724;2023-05-10T21:15:02;100492.63;;;13.61
78669;BMP280;67984;45.118;20.724;2023-05-10T21:25:03;100487.41;;;13.57
78669;BMP280;67984;45.118;20.724;2023-05-10T21:35:04;100482.59;;;13.52
78669;BMP280;67984;45.118;20.724;2023-05-10T21:45:05;100484.56;;;13.42
78669;BMP280;67984;45.118;20.724;2023-05-10T21:55:07;100485.75;;;13.37
78669;BMP280;67984;45.118;20.724;2023-05-10T22:05:08;100482.72;;;13.32
78669;BMP280;67984;45.118;20.724;2023-05-10T22:15:09;100480.94;;;13.29
78669;BMP280;67984;45.118;20.724;2023-05-10T22:25:10;100477.19;;;13.30
78669;BMP280;67984;45.118;20.724;2023-05-10T22:35:11;100469.63;;;13.32
78669;BMP280;67984;45.118;20.724;2023-05-10T22:45:11;100462.94;;;13.31
78669;BMP280;67984;45.118;20.724;2023-05-10T22:55:12;100459.94;;;13.25
78669;BMP280;67984;45.118;20.724;2023-05-10T23:05:13;100459.25;;;13.25
78669;BMP280;67984;45.118;20.724;2023-05-10T23:15:13;100456.97;;;13.27
78669;BMP280;67984;45.118;20.724;2023-05-10T23:25:14;100448.75;;;13.25
78669;BMP280;67984;45.118;20.724;2023-05-10T23:35:15;100450.59;;;13.28
78669;BMP280;67984;45.118;20.724;2023-05-10T23:45:16;100442.03;;;13.24
78669;BMP280;67984;45.118;20.724;2023-05-10T23:55:16;100433.47;;;13.16
